Time;durP1;ratioP1;P1;durP2;ratioP2;P2;SDS_P1;SDS_P2;PMS_P1;PMS_P2;Temp;Humidity;BMP_temperature;BMP_pressure;BME280_temperature;BME280_humidity;BME280_pressure;Samples;Min_cycle;Max_cycle;Signal;HPM_P1;HPM_P2
2021/12/23 00:01:00;;;;;;;5.40;3.55;;;;;;;-9.09;71.67;97444.56;5113703;28;20045;-68
2021/12/23 00:03:26;;;;;;;4.60;3.10;;;;;;;-9.07;71.60;97458.19;5113749;28;20027;-67
2021/12/23 00:05:55;;;;;;;4.07;3.33;;;;;;;-9.07;71.91;97445.50;5113659;28;20022;-65
2021/12/23 00:08:21;;;;;;;4.78;3.58;;;;;;;-9.15;72.09;97442.59;5113518;28;20023;-64
2021/12/23 00:10:47;;;;;;;6.00;3.13;;;;;;;-9.21;72.29;97445.66;5113773;28;20023;-65
2021/12/23 00:13:14;;;;;;;5.07;3.20;;;;;;;-9.21;72.64;97442.25;5113710;28;20546;-67
2021/12/23 00:16:02;;;;;;;4.65;3.15;;;;;;;-9.21;72.44;97445.66;5113636;28;20035;-67
2021/12/23 00:23:58;;;;;;;4.65;3.33;;;;;;;-9.16;72.66;97446.78;5113395;28;20062;-65
2021/12/23 00:26:25;;;;;;;3.80;3.10;;;;;;;-9.09;72.39;97439.50;5113469;28;20032;-65
2021/12/23 00:28:51;;;;;;;6.32;3.28;;;;;;;-9.06;72.37;97447.28;5113481;28;20019;-62
2021/12/23 00:31:17;;;;;;;6.47;3.05;;;;;;;-8.99;72.38;97444.28;5113601;28;20034;-68
2021/12/23 00:33:44;;;;;;;4.18;3.10;;;;;;;-8.96;71.92;97446.09;5113567;28;20020;-65
2021/12/23 00:36:12;;;;;;;5.65;3.35;;;;;;;-8.98;71.09;97435.00;5113590;28;20115;-67
2021/12/23 00:38:44;;;;;;;5.97;3.17;;;;;;;-8.91;71.19;97448.06;5113379;28;20028;-65
2021/12/23 00:41:10;;;;;;;4.65;2.70;;;;;;;-8.91;71.01;97437.06;5113417;28;20601;-64
2021/12/23 00:43:36;;;;;;;4.95;3.45;;;;;;;-8.87;71.20;97441.50;5113333;28;20028;-67
2021/12/23 00:46:06;;;;;;;5.35;3.15;;;;;;;-8.83;71.08;97440.00;5113596;28;20031;-68
2021/12/23 00:48:32;;;;;;;6.30;3.35;;;;;;;-8.86;71.15;97440.72;5113362;28;20054;-68
2021/12/23 00:50:57;;;;;;;7.28;3.10;;;;;;;-8.88;71.09;97443.16;5113280;28;20476;-68
2021/12/23 00:53:24;;;;;;;5.18;3.20;;;;;;;-8.83;70.87;97438.34;5113293;28;20032;-66
2021/12/23 00:55:52;;;;;;;5.25;3.20;;;;;;;-8.88;70.90;97443.16;5114419;28;20024;-68
2021/12/23 00:58:19;;;;;;;5.30;3.15;;;;;;;-8.86;70.58;97440.72;5117301;28;20015;-66
2021/12/23 01:00:46;;;;;;;4.75;3.05;;;;;;;-8.86;70.67;97434.78;5117248;28;20019;-68
2021/12/23 01:03:13;;;;;;;4.80;3.15;;;;;;;-8.85;70.44;97442.47;5117128;28;20031;-68
2021/12/23 01:05:39;;;;;;;5.65;3.58;;;;;;;-8.92;70.69;97442.91;5117075;28;20122;-63
2021/12/23 01:08:06;;;;;;;8.15;2.47;;;;;;;-8.95;70.77;97437.69;5117065;28;20030;-66
2021/12/23 01:10:32;;;;;;;6.47;4.00;;;;;;;-8.97;70.89;97435.09;5117004;28;20055;-64
2021/12/23 01:13:01;;;;;;;4.45;2.92;;;;;;;-9.00;71.01;97432.41;5116948;27;20610;-67
2021/12/23 01:18:08;;;;;;;5.88;3.25;;;;;;;-9.09;71.20;97427.72;5116962;28;20070;-64
2021/12/23 01:20:36;;;;;;;6.47;3.67;;;;;;;-9.21;71.34;97417.78;5115543;28;20412;-66
2021/12/23 01:23:04;;;;;;;4.78;3.35;;;;;;;-9.18;71.53;97425.53;5116665;28;20420;-66
2021/12/23 01:25:31;;;;;;;7.03;3.33;;;;;;;-9.19;71.66;97422.91;5116827;28;20031;-66
2021/12/23 01:27:57;;;;;;;5.60;3.53;;;;;;;-9.23;71.48;97429.50;5116709;28;20046;-64
2021/12/23 01:30:23;;;;;;;6.07;3.85;;;;;;;-9.28;71.60;97425.81;5116676;28;20020;-67
2021/12/23 01:32:51;;;;;;;8.77;3.50;;;;;;;-9.28;71.84;97423.28;5116635;28;20023;-63
2021/12/23 01:35:18;;;;;;;5.07;3.40;;;;;;;-9.21;71.64;97430.47;5116636;28;20030;-66
2021/12/23 01:37:44;;;;;;;4.80;3.10;;;;;;;-9.21;71.50;97429.56;5116500;28;20488;-64
2021/12/23 01:40:12;;;;;;;5.53;3.10;;;;;;;-9.18;71.53;97424.66;5116546;28;20019;-64
2021/12/23 01:42:38;;;;;;;7.38;3.88;;;;;;;-9.18;71.53;97414.53;5116431;28;20111;-65
2021/12/23 01:45:14;;;;;;;9.43;3.60;;;;;;;-9.19;71.64;97413.66;5116421;28;20069;-64
2021/12/23 01:47:41;;;;;;;4.70;3.25;;;;;;;-9.15;71.76;97409.63;5116295;28;20027;-66
2021/12/23 01:50:08;;;;;;;6.95;3.75;;;;;;;-9.18;71.80;97414.53;5116418;28;20050;-63
2021/12/23 01:52:34;;;;;;;8.20;3.25;;;;;;;-9.10;71.90;97404.81;5116270;28;20077;-68
2021/12/23 01:55:01;;;;;;;5.18;3.65;;;;;;;-9.04;71.46;97411.06;5116180;28;20065;-64
2021/12/23 01:57:31;;;;;;;5.18;3.35;;;;;;;-9.05;71.17;97408.44;5116269;28;20039;-67
2021/12/23 01:59:58;;;;;;;5.82;3.53;;;;;;;-8.97;70.76;97414.81;5116269;28;20028;-66
2021/12/23 02:02:25;;;;;;;5.13;2.75;;;;;;;-8.96;70.75;97418.19;5116096;28;20355;-66
2021/12/23 02:04:51;;;;;;;4.05;3.00;;;;;;;-9.02;70.56;97406.94;5115951;28;20031;-66
2021/12/23 02:07:17;;;;;;;5.05;3.08;;;;;;;-9.01;70.64;97417.94;5115305;28;20099;-68
2021/12/23 02:09:43;;;;;;;6.57;3.70;;;;;;;-9.06;70.54;97406.69;5115812;28;20098;-68
2021/12/23 02:12:09;;;;;;;4.57;3.15;;;;;;;-9.02;70.43;97406.06;5115810;28;20462;-66
2021/12/23 02:14:35;;;;;;;6.93;3.53;;;;;;;-9.01;70.52;97401.06;5115894;28;20441;-68
2021/12/23 02:17:01;;;;;;;4.80;2.90;;;;;;;-9.02;70.62;97406.06;5115740;28;20102;-67
2021/12/23 02:19:27;;;;;;;5.45;2.70;;;;;;;-9.05;70.67;97408.44;5115759;28;20378;-66
2021/12/23 02:21:53;;;;;;;4.28;2.97;;;;;;;-9.21;70.90;97402.56;5115690;28;20028;-66
2021/12/23 02:24:19;;;;;;;4.88;2.85;;;;;;;-9.31;71.72;97406.25;5115440;28;20096;-67
2021/12/23 02:26:45;;;;;;;5.20;3.58;;;;;;;-9.37;71.86;97407.59;5115644;28;20055;-67
2021/12/23 02:29:10;;;;;;;4.90;2.75;;;;;;;-9.42;72.07;97410.72;5115494;28;20543;-64
2021/12/23 02:31:37;;;;;;;6.50;2.97;;;;;;;-9.44;71.92;97411.44;5115507;28;20480;-63
2021/12/23 02:34:03;;;;;;;3.58;2.92;;;;;;;-9.41;71.85;97415.03;5115420;28;20427;-66
2021/12/23 02:36:30;;;;;;;3.53;2.75;;;;;;;-9.35;71.68;97411.06;5115512;28;20131;-67
2021/12/23 02:39:00;;;;;;;6.90;3.10;;;;;;;-9.33;71.53;97417.09;5115413;28;20102;-66
2021/12/23 02:41:26;;;;;;;4.88;2.90;;;;;;;-9.31;71.28;97418.94;5115374;28;20026;-65
2021/12/23 02:43:52;;;;;;;5.20;3.10;;;;;;;-9.31;71.52;97418.94;5115233;28;20028;-64
2021/12/23 02:46:19;;;;;;;6.57;3.38;;;;;;;-9.39;71.82;97415.13;5115268;28;20028;-64
2021/12/23 02:48:46;;;;;;;6.63;3.40;;;;;;;-9.40;71.95;97414.25;5115135;28;20027;-67
2021/12/23 02:51:14;;;;;;;4.30;3.10;;;;;;;-9.40;71.93;97414.25;5115129;28;20034;-62
2021/12/23 02:53:42;;;;;;;6.07;3.35;;;;;;;-9.37;72.07;97410.13;5115073;28;20082;-65
2021/12/23 02:56:14;;;;;;;5.10;2.97;;;;;;;-9.43;72.12;97408.13;5114988;28;20050;-67
2021/12/23 02:58:39;;;;;;;4.72;2.80;;;;;;;-9.38;71.94;97404.19;5114900;28;20027;-64
2021/12/23 03:01:08;;;;;;;4.10;3.10;;;;;;;-9.34;71.82;97401.00;5114946;28;20027;-66
2021/12/23 03:03:33;;;;;;;4.22;2.90;;;;;;;-9.32;71.34;97404.53;5114951;28;20031;-65
2021/12/23 03:06:00;;;;;;;5.15;2.97;;;;;;;-9.37;71.37;97400.84;5114783;28;20024;-67
2021/12/23 03:08:35;;;;;;;3.00;2.63;;;;;;;-9.42;71.54;97409.88;5114642;28;20032;-66
2021/12/23 03:11:03;;;;;;;6.43;3.17;;;;;;;-9.45;71.41;97405.50;5114784;28;20120;-66
2021/12/23 03:13:29;;;;;;;5.03;3.03;;;;;;;-9.41;71.31;97409.97;5114813;28;20039;-66
2021/12/23 03:15:54;;;;;;;6.03;2.97;;;;;;;-9.48;71.46;97409.53;5114729;28;20020;-64
2021/12/23 03:18:20;;;;;;;5.15;2.78;;;;;;;-9.59;71.72;97406.41;5113821;28;20039;-65
2021/12/23 03:20:45;;;;;;;5.95;3.08;;;;;;;-9.61;71.80;97406.31;5114543;28;20028;-64
2021/12/23 03:23:11;;;;;;;8.27;3.08;;;;;;;-9.49;71.76;97403.59;5114204;28;20040;-64
2021/12/23 03:25:37;;;;;;;6.07;3.35;;;;;;;-9.55;72.05;97413.38;5114550;28;20028;-66
2021/12/23 03:28:03;;;;;;;6.97;3.85;;;;;;;-9.60;72.57;97415.69;5114315;28;20023;-67
2021/12/23 03:30:28;;;;;;;5.53;3.00;;;;;;;-9.59;73.12;97412.38;5114340;28;20055;-66
2021/12/23 03:32:54;;;;;;;5.00;3.42;;;;;;;-9.61;72.66;97413.06;5114395;28;20112;-64
2021/12/23 03:35:19;;;;;;;6.15;3.60;;;;;;;-9.67;72.32;97414.47;5114411;28;20034;-65
2021/12/23 03:37:45;;;;;;;6.38;3.10;;;;;;;-9.60;72.51;97424.94;5114179;28;20012;-66
2021/12/23 03:40:11;;;;;;;8.40;3.72;;;;;;;-9.57;72.10;97418.38;5114131;28;20027;-67
2021/12/23 03:42:38;;;;;;;6.57;2.95;;;;;;;-9.61;72.33;97420.69;5114179;28;20027;-65
2021/12/23 03:45:05;;;;;;;4.65;3.30;;;;;;;-9.60;72.28;97418.22;5114071;28;20016;-65
2021/12/23 03:47:31;;;;;;;4.65;2.85;;;;;;;-9.60;71.85;97408.09;5113979;27;20027;-64
2021/12/23 03:49:56;;;;;;;4.05;2.83;;;;;;;-9.61;72.21;97413.94;5114023;28;20377;-67
2021/12/23 03:52:22;;;;;;;4.00;3.28;;;;;;;-9.65;72.16;97415.44;5114018;28;20035;-66
2021/12/23 03:54:47;;;;;;;4.38;2.80;;;;;;;-9.63;72.63;97423.13;5114001;28;20027;-66
2021/12/23 03:57:13;;;;;;;5.38;3.40;;;;;;;-9.58;72.37;97425.91;5113923;28;20027;-65
2021/12/23 03:59:39;;;;;;;5.13;3.10;;;;;;;-9.60;72.38;97433.44;5113956;28;20027;-67
2021/12/23 04:02:04;;;;;;;5.80;3.40;;;;;;;-9.61;72.51;97436.72;5114036;28;20054;-63
2021/12/23 04:04:30;;;;;;;4.93;3.55;;;;;;;-9.52;72.40;97438.91;5113901;28;20420;-65
2021/12/23 04:06:56;;;;;;;4.63;3.03;;;;;;;-9.52;71.47;97442.31;5113934;28;20465;-64
2021/12/23 04:09:22;;;;;;;4.82;3.05;;;;;;;-9.50;71.16;97442.41;5113623;28;20031;-64
2021/12/23 04:11:47;;;;;;;6.53;2.80;;;;;;;-9.47;70.76;97442.56;5113769;28;20023;-66
2021/12/23 04:14:13;;;;;;;4.65;3.03;;;;;;;-9.44;70.56;97447.81;5113800;28;20465;-65
2021/12/23 04:16:39;;;;;;;5.47;3.00;;;;;;;-9.42;70.63;97446.22;5113832;28;20374;-64
2021/12/23 04:19:07;;;;;;;6.97;3.30;;;;;;;-9.49;70.92;97450.88;5113531;28;20466;-65
2021/12/23 04:21:34;;;;;;;6.10;3.28;;;;;;;-9.55;70.89;97434.53;5113493;28;20031;-66
2021/12/23 04:23:59;;;;;;;5.38;3.17;;;;;;;-9.52;70.80;97451.56;5113419;28;20440;-67
2021/12/23 04:26:25;;;;;;;5.50;3.05;;;;;;;-9.55;71.32;97449.75;5113562;28;20024;-65
2021/12/23 04:28:51;;;;;;;5.15;3.22;;;;;;;-9.55;71.67;97449.75;5113408;28;20027;-65
2021/12/23 04:31:19;;;;;;;5.03;2.83;;;;;;;-9.52;71.24;97442.31;5119629;28;20084;-66
2021/12/23 04:33:47;;;;;;;6.43;3.78;;;;;;;-9.59;71.35;97447.84;5120255;27;20448;-68
2021/12/23 04:36:12;;;;;;;5.30;3.33;;;;;;;-9.61;71.53;97453.63;5120344;27;20020;-66
2021/12/23 04:38:40;;;;;;;3.50;2.70;;;;;;;-9.57;71.71;97450.47;5120359;27;20031;-67
2021/12/23 04:41:06;;;;;;;6.93;3.80;;;;;;;-9.59;71.79;97452.03;5120255;27;20032;-67
2021/12/23 04:43:32;;;;;;;4.97;3.22;;;;;;;-9.64;71.75;97452.66;5120274;27;20020;-66
2021/12/23 04:45:58;;;;;;;5.30;3.35;;;;;;;-9.57;71.82;97448.78;5120229;27;20020;-65
2021/12/23 04:48:23;;;;;;;5.32;3.15;;;;;;;-9.56;71.15;97449.66;5120084;27;20024;-65
2021/12/23 04:50:49;;;;;;;4.88;3.03;;;;;;;-9.63;71.45;97451.00;5120280;27;20382;-65
2021/12/23 04:53:14;;;;;;;5.38;3.40;;;;;;;-9.63;71.29;97445.94;5120180;27;20469;-66
2021/12/23 04:55:42;;;;;;;5.25;3.40;;;;;;;-9.63;71.38;97451.00;5120283;27;20015;-65
2021/12/23 04:58:08;;;;;;;4.20;3.03;;;;;;;-9.71;71.50;97447.16;5120060;27;20031;-67
2021/12/23 05:00:33;;;;;;;5.05;3.30;;;;;;;-9.74;72.08;97444.44;5120117;27;20534;-65
2021/12/23 05:02:59;;;;;;;6.05;3.00;;;;;;;-9.72;71.70;97448.81;5119983;27;20043;-64
2021/12/23 05:05:24;;;;;;;5.57;3.30;;;;;;;-9.66;71.69;97446.59;5119958;27;20062;-67
2021/12/23 05:07:50;;;;;;;4.00;2.90;;;;;;;-9.63;71.73;97443.41;5119970;27;20476;-67
2021/12/23 05:10:16;;;;;;;3.88;2.63;;;;;;;-9.65;71.79;97452.56;5120071;27;20031;-67
2021/12/23 05:12:44;;;;;;;4.93;2.95;;;;;;;-9.62;71.52;97445.13;5120161;27;20427;-67
2021/12/23 05:15:11;;;;;;;3.25;2.63;;;;;;;-9.60;71.62;97453.69;5118654;28;20422;-62
2021/12/23 05:17:37;;;;;;;3.95;2.88;;;;;;;-9.66;71.58;97444.06;5119869;27;20028;-65
2021/12/23 05:20:05;;;;;;;11.43;3.10;;;;;;;-9.68;71.51;97444.78;5119786;27;20024;-66
2021/12/23 05:22:30;;;;;;;4.25;3.28;;;;;;;-9.60;71.46;97453.69;5119592;27;20101;-64
2021/12/23 05:24:56;;;;;;;5.93;3.40;;;;;;;-9.56;71.36;97454.72;5119970;27;20407;-68
2021/12/23 05:27:21;;;;;;;4.35;3.45;;;;;;;-9.56;71.42;97453.09;5119770;27;20478;-68
2021/12/23 05:29:47;;;;;;;8.13;3.67;;;;;;;-9.55;71.47;97447.22;5119862;28;20024;-67
2021/12/23 05:32:12;;;;;;;4.85;3.17;;;;;;;-9.64;71.47;97451.75;5119778;27;20051;-67
2021/12/23 05:34:38;;;;;;;5.55;3.25;;;;;;;-9.64;71.46;97444.16;5119686;27;20023;-67
2021/12/23 05:37:04;;;;;;;3.53;2.70;;;;;;;-9.58;71.46;97447.03;5119841;27;20094;-67
2021/12/23 05:39:29;;;;;;;5.30;2.80;;;;;;;-9.62;71.41;97447.66;5119914;27;20144;-68
2021/12/23 05:41:55;;;;;;;3.38;2.92;;;;;;;-9.63;71.52;97445.94;5117247;27;20023;-64
2021/12/23 05:44:20;;;;;;;4.38;2.97;;;;;;;-9.64;71.60;97444.16;5116445;28;20016;-63
2021/12/23 05:46:46;;;;;;;6.13;3.20;;;;;;;-9.58;71.35;97452.09;5116577;28;20019;-64
2021/12/23 05:49:12;;;;;;;6.30;3.95;;;;;;;-9.49;71.43;97449.22;5116189;28;20403;-65
2021/12/23 05:51:38;;;;;;;5.68;3.10;;;;;;;-9.48;71.50;97456.03;5116344;27;20077;-66
2021/12/23 05:54:05;;;;;;;7.40;3.42;;;;;;;-9.41;71.33;97467.38;5116357;28;20451;-64
2021/12/23 05:56:30;;;;;;;5.80;3.22;;;;;;;-9.42;71.16;97455.50;5116212;27;20020;-66
2021/12/23 05:58:56;;;;;;;10.32;3.45;;;;;;;-9.33;70.87;97467.81;5116277;28;20022;-66
2021/12/23 06:01:21;;;;;;;8.93;3.58;;;;;;;-9.30;70.48;97471.38;5116171;28;20098;-65
2021/12/23 06:03:47;;;;;;;5.35;3.70;;;;;;;-9.23;70.17;97472.59;5116064;28;20051;-67
2021/12/23 06:06:14;;;;;;;4.57;3.35;;;;;;;-9.25;70.23;97476.69;5116026;28;20028;-68
2021/12/23 06:08:40;;;;;;;4.53;2.80;;;;;;;-9.15;70.15;97475.56;5115927;28;20034;-63
2021/12/23 06:11:06;;;;;;;8.68;3.63;;;;;;;-9.13;70.31;97477.38;5115925;28;20535;-66
2021/12/23 06:13:32;;;;;;;5.85;3.08;;;;;;;-9.15;70.51;97483.16;5115900;27;20019;-68
2021/12/23 06:15:57;;;;;;;4.50;2.95;;;;;;;-9.13;70.39;97487.53;5115848;28;20408;-68
2021/12/23 06:18:23;;;;;;;4.50;2.83;;;;;;;-9.18;70.44;97483.00;5115871;28;20064;-64
2021/12/23 06:20:49;;;;;;;4.57;3.00;;;;;;;-9.17;71.12;97479.66;5115812;28;20160;-66
2021/12/23 06:23:14;;;;;;;5.85;3.28;;;;;;;-9.07;70.85;97479.38;5115541;28;20040;-64
2021/12/23 06:25:40;;;;;;;6.00;3.33;;;;;;;-8.87;71.41;97474.50;5115635;28;20123;-68
2021/12/23 06:28:06;;;;;;;4.10;2.58;;;;;;;-7.69;70.72;97483.75;5115599;28;20020;-64
2021/12/23 06:30:32;;;;;;;4.10;2.60;;;;;;;-5.64;65.13;97474.13;5115546;28;20150;-66
2021/12/23 06:32:57;;;;;;;3.63;2.55;;;;;;;-3.55;58.42;97475.72;5115582;28;20393;-65
2021/12/23 06:35:27;;;;;;;4.05;2.67;;;;;;;-1.68;51.96;97462.28;5115394;28;20031;-64
2021/12/23 06:37:53;;;;;;;3.78;2.38;;;;;;;-0.20;47.61;97460.41;5115440;28;20488;-68
2021/12/23 06:40:19;;;;;;;3.60;2.50;;;;;;;1.19;44.93;97469.56;5115294;28;20019;-65
2021/12/23 06:42:45;;;;;;;2.60;2.20;;;;;;;2.76;41.86;97465.25;5115377;28;20533;-64
2021/12/23 06:45:11;;;;;;;4.28;3.00;;;;;;;4.20;39.42;97474.63;5113985;28;20024;-63
2021/12/23 06:47:37;;;;;;;5.47;3.35;;;;;;;5.16;36.73;97476.44;5115146;28;20393;-68
2021/12/23 06:50:07;;;;;;;3.30;3.00;;;;;;;6.27;34.94;97464.78;5115243;28;20038;-66
2021/12/23 06:52:33;;;;;;;4.85;2.97;;;;;;;7.04;33.20;97455.56;5114919;28;20027;-66
2021/12/23 06:54:59;;;;;;;3.03;2.40;;;;;;;7.81;31.61;97453.00;5114284;28;20469;-63
2021/12/23 06:57:26;;;;;;;3.30;2.28;;;;;;;8.42;30.58;97457.41;5115045;28;20045;-69
2021/12/23 06:59:52;;;;;;;2.75;2.33;;;;;;;9.08;29.42;97462.50;5115047;28;20028;-66
2021/12/23 07:02:17;;;;;;;2.13;1.92;;;;;;;9.58;28.50;97464.19;5115035;28;20114;-67
2021/12/23 07:04:45;;;;;;;2.20;2.00;;;;;;;10.13;27.79;97459.63;5114954;28;20469;-63
2021/12/23 07:07:13;;;;;;;3.42;2.17;;;;;;;10.39;26.50;97461.69;5114887;28;20397;-70
2021/12/23 07:09:40;;;;;;;3.72;2.53;;;;;;;10.78;26.79;97454.72;5114658;28;20035;-66
2021/12/23 07:12:09;;;;;;;3.70;2.55;;;;;;;11.49;25.91;97452.91;5114721;28;20028;-65
2021/12/23 07:14:35;;;;;;;2.80;2.28;;;;;;;12.31;25.11;97463.75;5114574;28;20032;-70
2021/12/23 07:17:01;;;;;;;4.00;2.50;;;;;;;12.79;24.53;97451.75;5114610;28;20106;-68
2021/12/23 07:19:26;;;;;;;3.05;2.30;;;;;;;13.06;23.77;97462.25;5114668;28;20173;-67
2021/12/23 07:21:52;;;;;;;4.15;2.72;;;;;;;13.39;23.70;97461.16;5114622;28;20478;-65
2021/12/23 07:24:17;;;;;;;3.10;2.53;;;;;;;13.80;23.37;97462.41;5114295;28;20044;-69
2021/12/23 07:26:43;;;;;;;4.90;2.83;;;;;;;14.00;23.12;97459.06;5114425;28;20458;-68
2021/12/23 07:29:09;;;;;;;3.78;2.65;;;;;;;14.29;23.08;97470.22;5114445;28;20034;-66
2021/12/23 07:31:35;;;;;;;4.45;2.92;;;;;;;14.39;22.46;97473.38;5114437;28;20039;-69
2021/12/23 07:34:00;;;;;;;4.18;3.08;;;;;;;14.75;21.73;97466.72;5114449;28;20102;-68
2021/12/23 07:36:27;;;;;;;3.30;2.75;;;;;;;15.25;21.05;97469.97;5114255;28;20019;-66
2021/12/23 07:38:54;;;;;;;3.40;2.80;;;;;;;15.60;21.04;97470.28;5114359;28;20031;-65
2021/12/23 07:41:20;;;;;;;3.13;2.80;;;;;;;15.81;21.03;97469.38;5114115;28;20020;-64
2021/12/23 07:46:40;;;;;;;4.18;3.00;;;;;;;15.93;20.72;97471.47;5104701;28;20044;-69
2021/12/23 07:49:06;;;;;;;6.13;2.92;;;;;;;15.88;20.98;97465.53;5113881;28;20027;-68
2021/12/23 07:51:33;;;;;;;3.50;3.20;;;;;;;15.53;20.61;97468.78;5114113;28;20030;-67
2021/12/23 07:53:58;;;;;;;3.78;2.97;;;;;;;15.64;21.37;97465.69;5114099;28;20046;-70
2021/12/23 07:56:24;;;;;;;3.45;3.00;;;;;;;16.14;21.30;97474.09;5113706;28;20485;-67
2021/12/23 07:58:51;;;;;;;3.67;3.00;;;;;;;16.23;21.07;97475.44;5113548;28;20024;-67
2021/12/23 08:01:16;;;;;;;4.40;2.90;;;;;;;15.62;21.47;97470.22;5113833;28;20077;-66
2021/12/23 08:03:42;;;;;;;4.43;3.10;;;;;;;15.91;21.23;97468.91;5113747;28;20044;-68
2021/12/23 08:06:08;;;;;;;4.05;3.40;;;;;;;15.78;21.61;97475.66;5113452;28;20031;-68
2021/12/23 08:08:33;;;;;;;4.28;2.97;;;;;;;15.50;22.07;97472.44;5113794;28;20031;-63
2021/12/23 08:10:59;;;;;;;7.03;3.40;;;;;;;15.89;21.79;97465.47;5113758;28;20058;-67
2021/12/23 08:13:24;;;;;;;3.63;3.15;;;;;;;15.73;21.78;97461.78;5113734;28;20032;-67
2021/12/23 08:15:50;;;;;;;5.55;3.28;;;;;;;15.96;21.87;97467.84;5113766;28;20084;-69
2021/12/23 08:18:16;;;;;;;3.85;2.92;;;;;;;16.34;20.91;97472.31;5113692;28;20023;-69
2021/12/23 08:20:42;;;;;;;4.03;3.05;;;;;;;16.60;20.16;97470.22;5113682;28;20032;-70
2021/12/23 08:23:07;;;;;;;4.35;3.47;;;;;;;16.98;20.23;97464.00;5113367;28;20071;-70
2021/12/23 08:25:33;;;;;;;3.83;3.35;;;;;;;16.95;19.54;97466.81;5113676;28;20020;-63
2021/12/23 08:27:59;;;;;;;4.07;3.17;;;;;;;16.49;20.25;97463.66;5113436;28;20023;-64
2021/12/23 08:30:25;;;;;;;6.05;3.70;;;;;;;16.07;21.13;97462.13;5113463;28;20401;-64
2021/12/23 08:32:51;;;;;;;3.63;3.30;;;;;;;15.73;21.66;97459.16;5113402;28;20020;-65
2021/12/23 08:35:18;;;;;;;4.97;3.42;;;;;;;15.44;21.70;97459.50;5113412;28;20026;-65
2021/12/23 08:37:49;;;;;;;6.13;3.67;;;;;;;14.96;21.53;97461.53;5113398;28;20051;-67
2021/12/23 08:40:22;;;;;;;7.82;4.07;;;;;;;13.34;22.17;97450.81;5112157;28;20098;-65
2021/12/23 08:42:49;;;;;;;11.15;6.78;;;;;;;12.23;24.04;97464.00;5113467;28;20367;-65
2021/12/23 08:45:16;;;;;;;14.38;11.80;;;;;;;11.97;24.14;97461.19;5113455;28;20023;-64
2021/12/23 08:47:41;;;;;;;9.30;7.25;;;;;;;12.07;24.12;97455.72;5113263;28;20019;-65
2021/12/23 08:50:09;;;;;;;8.95;7.50;;;;;;;11.71;24.76;97454.09;5113334;28;20046;-68
2021/12/23 08:52:35;;;;;;;8.15;5.25;;;;;;;10.73;26.93;97447.84;5113379;28;20028;-62
2021/12/23 08:55:05;;;;;;;5.20;4.18;;;;;;;8.92;29.86;97453.19;5113299;28;20028;-66
2021/12/23 08:57:33;;;;;;;5.20;3.47;;;;;;;7.55;32.36;97448.09;5113372;28;20131;-62
2021/12/23 08:59:58;;;;;;;8.52;5.45;;;;;;;6.72;33.23;97446.28;5113145;28;20069;-66
2021/12/23 09:02:25;;;;;;;7.15;5.32;;;;;;;6.37;33.61;97450.00;5113148;28;20107;-63
2021/12/23 09:04:52;;;;;;;7.32;5.60;;;;;;;6.21;34.09;97438.84;5113131;28;20104;-66
2021/12/23 09:07:17;;;;;;;9.52;6.20;;;;;;;5.90;34.94;97437.25;5113172;28;20477;-66
2021/12/23 09:09:47;;;;;;;7.00;5.07;;;;;;;5.25;36.13;97436.63;5113099;28;20070;-68
2021/12/23 09:12:12;;;;;;;7.57;5.00;;;;;;;4.51;37.37;97432.34;5113058;28;20080;-65
2021/12/23 09:14:38;;;;;;;8.52;5.68;;;;;;;4.03;38.27;97434.00;5113060;28;20024;-66
2021/12/23 09:17:04;;;;;;;12.63;9.82;;;;;;;3.85;39.25;97432.22;5114390;28;20030;-63
2021/12/23 09:19:32;;;;;;;9.43;7.60;;;;;;;3.69;40.28;97426.16;5117004;28;20465;-66
2021/12/23 09:21:57;;;;;;;9.27;5.50;;;;;;;3.46;40.02;97413.13;5117040;28;20016;-65
2021/12/23 09:24:23;;;;;;;12.18;7.30;;;;;;;3.07;41.58;97411.19;5116715;28;20051;-64
2021/12/23 09:26:59;;;;;;;11.52;6.85;;;;;;;2.65;42.71;97398.84;5116697;28;20047;-66
2021/12/23 09:35:01;;;;;;;12.13;7.55;;;;;;;2.07;43.98;97402.69;5117089;28;20487;-63
2021/12/23 09:37:28;;;;;;;10.57;6.85;;;;;;;2.10;43.67;97396.66;5116550;28;20469;-65
2021/12/23 09:39:56;;;;;;;15.48;8.27;;;;;;;1.98;44.26;97394.81;5116465;27;20024;-66
2021/12/23 09:42:33;;;;;;;11.38;7.05;;;;;;;2.07;44.57;97392.34;5116470;28;20028;-70
2021/12/23 09:45:05;;;;;;;13.80;7.15;;;;;;;1.85;45.12;97399.88;5116487;27;20015;-69
2021/12/23 09:47:33;;;;;;;13.30;7.93;;;;;;;1.85;43.94;97392.16;5116420;27;20028;-68
2021/12/23 09:50:02;;;;;;;13.38;7.70;;;;;;;1.85;44.56;97389.56;5116366;28;20016;-63
2021/12/23 09:52:32;;;;;;;15.43;7.40;;;;;;;1.63;45.20;97389.31;5116465;28;20031;-68
2021/12/23 09:55:01;;;;;;;11.15;5.82;;;;;;;1.75;44.95;97380.00;5116319;28;20473;-66
2021/12/23 09:57:27;;;;;;;12.02;6.30;;;;;;;1.49;45.37;97384.00;5116276;28;20051;-66
2021/12/23 09:59:54;;;;;;;12.57;6.97;;;;;;;1.53;45.97;97376.31;5116254;27;20417;-66
2021/12/23 10:02:20;;;;;;;11.38;6.70;;;;;;;1.48;45.11;97379.69;5116002;28;20035;-65
2021/12/23 10:04:46;;;;;;;12.48;6.38;;;;;;;1.40;45.34;97371.00;5116132;28;20028;-66
2021/12/23 10:07:12;;;;;;;9.90;6.35;;;;;;;1.50;45.58;97370.25;5116208;28;20028;-65
2021/12/23 10:31:35;;;;;;;9.32;5.80;;;;;;;1.28;43.40;97348.53;5115660;28;20020;-65
2021/12/23 10:37:18;;;;;;;8.50;5.80;;;;;;;1.24;44.91;97331.28;5099053;28;20082;-70
2021/12/23 10:39:51;;;;;;;8.85;5.18;;;;;;;1.25;45.84;97335.59;5115442;28;20028;-68
2021/12/23 10:42:24;;;;;;;8.10;4.97;;;;;;;1.34;42.83;97334.81;5115553;28;20503;-71
2021/12/23 10:44:55;;;;;;;6.22;4.88;;;;;;;1.18;44.38;97319.19;5115518;28;20061;-70
2021/12/23 10:47:52;;;;;;;7.43;4.88;;;;;;;1.25;43.58;97323.56;5115366;28;20097;-63
2021/12/23 10:50:28;;;;;;;6.32;4.05;;;;;;;1.10;42.21;97315.66;5115342;28;20036;-69
2021/12/23 10:53:06;;;;;;;8.75;4.43;;;;;;;0.97;43.83;97310.34;5115247;28;20023;-64
2021/12/23 10:58:17;;;;;;;7.63;5.13;;;;;;;1.18;43.44;97308.88;5115421;28;20093;-69
2021/12/23 11:00:52;;;;;;;8.15;5.13;;;;;;;1.18;44.60;97308.88;5115129;28;20027;-68
2021/12/23 11:06:19;;;;;;;;;;;;;;;0.97;43.65;97294.88;5115490;28;20024;-67
2021/12/23 11:27:26;;;;;;;7.03;5.25;;;;;;;1.09;44.99;97301.88;5105657;28;21131;-64
2021/12/23 11:39:52;;;;;;;5.90;4.28;;;;;;;0.80;43.92;97260.31;5113971;28;20102;-70
2021/12/23 11:42:14;;;;;;;5.05;4.03;;;;;;;0.75;45.03;97255.97;5103155;28;20466;-63
2021/12/23 11:44:41;;;;;;;6.82;4.53;;;;;;;0.77;45.71;97260.25;5114241;27;20031;-66
2021/12/23 11:47:11;;;;;;;9.45;5.38;;;;;;;0.70;45.61;97254.19;5114150;28;20020;-68
2021/12/23 11:49:39;;;;;;;7.40;4.90;;;;;;;0.62;46.57;97254.09;5114016;28;20496;-66
2021/12/23 11:52:06;;;;;;;5.78;4.15;;;;;;;0.59;45.94;97257.50;5114040;28;20435;-69
2021/12/23 11:54:41;;;;;;;7.35;4.75;;;;;;;0.60;44.54;97260.94;5113981;28;20080;-68
2021/12/23 11:57:16;;;;;;;8.35;5.07;;;;;;;0.70;46.08;97251.63;5113947;28;20462;-69
2021/12/23 11:59:49;;;;;;;7.07;4.65;;;;;;;0.73;46.49;97259.38;5113998;28;20040;-68
2021/12/23 12:02:19;;;;;;;6.28;4.30;;;;;;;0.71;44.18;97243.91;5114046;28;20024;-69
2021/12/23 12:04:47;;;;;;;8.15;5.00;;;;;;;0.68;45.34;97250.72;5113990;28;20019;-66
2021/12/23 12:07:21;;;;;;;6.15;4.68;;;;;;;0.61;45.91;97253.22;5113808;28;20020;-67
2021/12/23 12:10:03;;;;;;;6.90;4.60;;;;;;;0.69;46.14;97253.31;5113865;28;20038;-64
2021/12/23 12:12:32;;;;;;;11.05;4.85;;;;;;;0.60;45.48;97254.06;5113821;28;20382;-65
2021/12/23 12:14:59;;;;;;;8.18;4.35;;;;;;;0.49;45.16;97253.91;5113632;28;20476;-67
2021/12/23 12:17:28;;;;;;;9.68;4.30;;;;;;;0.47;45.02;97250.47;5113648;28;20020;-65
2021/12/23 12:19:58;;;;;;;5.95;4.22;;;;;;;0.52;45.53;97255.69;5113706;28;20488;-69
2021/12/23 12:22:46;;;;;;;7.00;4.07;;;;;;;0.49;44.39;97264.22;5113557;28;20076;-71
2021/12/23 12:25:37;;;;;;;7.10;4.30;;;;;;;0.40;45.73;97260.66;5113697;28;20058;-68
2021/12/23 12:28:03;;;;;;;6.80;5.15;;;;;;;0.32;46.91;97265.69;5075197;28;20500;-67
2021/12/23 12:30:47;;;;;;;8.10;5.28;;;;;;;0.32;46.84;97269.13;5113625;28;20030;-66
2021/12/23 12:33:18;;;;;;;14.13;6.40;;;;;;;0.27;48.16;97257.03;5113631;28;20085;-67
2021/12/23 12:35:57;;;;;;;7.97;5.28;;;;;;;0.24;47.28;97260.44;5113449;28;20024;-66
2021/12/23 12:38:26;;;;;;;9.98;6.28;;;;;;;0.30;47.26;97250.22;5113607;28;20046;-65
2021/12/23 12:41:03;;;;;;;7.93;5.60;;;;;;;0.31;47.94;97244.25;5113333;28;20027;-67
2021/12/23 12:43:51;;;;;;;6.85;4.80;;;;;;;0.23;46.42;97238.97;5113572;28;20023;-67
2021/12/23 12:46:35;;;;;;;8.02;5.35;;;;;;;0.19;47.18;97232.06;5113378;28;20461;-65
2021/12/23 12:49:22;;;;;;;7.25;5.28;;;;;;;0.05;47.15;97223.25;5113433;28;20452;-65
2021/12/23 12:51:49;;;;;;;9.63;5.93;;;;;;;0.04;48.26;97229.25;5116194;28;20040;-64